createdAt,value
2023-06-22T00:01:32.729Z,22.30
2023-06-22T00:03:35.210Z,22.30
2023-06-22T00:05:37.427Z,22.30
2023-06-22T00:07:39.966Z,22.30
2023-06-22T00:09:42.218Z,22.30
2023-06-22T00:11:44.627Z,22.30
2023-06-22T00:13:46.922Z,22.30
2023-06-22T00:15:49.399Z,22.30
2023-06-22T00:17:52.450Z,22.30
2023-06-22T00:19:56.353Z,22.40
2023-06-22T00:22:01.417Z,22.40
2023-06-22T00:24:04.196Z,22.40
2023-06-22T00:26:06.324Z,22.30
2023-06-22T00:28:09.112Z,22.30
2023-06-22T00:30:11.825Z,22.30
2023-06-22T00:32:14.354Z,22.30
2023-06-22T00:34:17.138Z,22.30
2023-06-22T00:36:20.293Z,22.20
2023-06-22T00:38:22.627Z,22.20
2023-06-22T00:40:25.259Z,22.30
2023-06-22T00:42:27.451Z,22.20
2023-06-22T00:44:29.952Z,22.20
2023-06-22T00:46:32.774Z,22.10
2023-06-22T00:48:38.120Z,21.90
2023-06-22T00:50:41.625Z,21.90
2023-06-22T00:52:45.686Z,21.80
2023-06-22T00:54:52.810Z,21.80
2023-06-22T00:56:57.366Z,21.80
2023-06-22T00:59:01.033Z,21.70
2023-06-22T01:01:03.618Z,21.70
2023-06-22T01:03:10.283Z,21.70
2023-06-22T01:05:14.920Z,21.70
2023-06-22T01:07:43.026Z,21.80
2023-06-22T01:10:03.531Z,21.80
2023-06-22T01:12:08.531Z,21.80
2023-06-22T01:14:25.675Z,21.80
2023-06-22T01:16:36.432Z,21.70
2023-06-22T01:18:43.070Z,21.70
2023-06-22T01:20:45.821Z,21.70
2023-06-22T01:23:09.737Z,21.70
2023-06-22T01:25:21.792Z,21.60
2023-06-22T01:27:42.559Z,21.50
2023-06-22T01:29:45.707Z,21.40
2023-06-22T01:31:50.781Z,21.50
2023-06-22T01:33:56.751Z,21.40
2023-06-22T01:35:59.916Z,21.40
2023-06-22T01:38:02.680Z,21.30
2023-06-22T01:40:08.256Z,21.30
2023-06-22T01:42:11.317Z,21.30
2023-06-22T01:44:14.071Z,21.30
2023-06-22T01:46:17.230Z,21.30
2023-06-22T01:48:20.776Z,21.20
2023-06-22T01:50:23.164Z,21.20
2023-06-22T01:52:25.713Z,21.20
2023-06-22T01:54:27.888Z,21.10
2023-06-22T01:56:30.492Z,21.00
2023-06-22T01:58:34.729Z,20.90
2023-06-22T02:00:40.517Z,20.90
2023-06-22T02:03:06.887Z,20.80
2023-06-22T02:05:13.048Z,20.80
2023-06-22T02:07:18.471Z,20.70
2023-06-22T02:09:23.454Z,20.70
2023-06-22T02:11:28.864Z,20.70
2023-06-22T02:13:32.557Z,20.70
2023-06-22T02:15:35.349Z,20.70
2023-06-22T02:17:38.006Z,20.70
2023-06-22T02:19:42.621Z,20.70
2023-06-22T02:21:45.542Z,20.70
2023-06-22T02:23:48.208Z,20.70
2023-06-22T02:25:50.810Z,20.70
2023-06-22T02:27:52.962Z,20.70
2023-06-22T02:29:55.399Z,20.70
2023-06-22T02:31:57.681Z,20.70
2023-06-22T02:34:00.765Z,20.70
2023-06-22T02:36:06.410Z,20.70
2023-06-22T02:38:09.300Z,20.70
2023-06-22T02:40:12.034Z,20.70
2023-06-22T02:42:14.492Z,20.80
2023-06-22T02:44:16.991Z,20.80
2023-06-22T02:46:19.451Z,20.80
2023-06-22T02:48:21.582Z,20.80
2023-06-22T02:50:24.311Z,20.90
2023-06-22T02:52:26.504Z,20.90
2023-06-22T02:54:28.885Z,21.00
2023-06-22T02:56:31.751Z,20.90
2023-06-22T02:58:39.726Z,20.90
2023-06-22T03:00:42.070Z,20.90
2023-06-22T03:02:51.505Z,20.90
2023-06-22T03:04:55.034Z,20.90
2023-06-22T03:06:57.625Z,20.90
2023-06-22T03:09:05.186Z,20.90
2023-06-22T03:11:08.946Z,21.00
2023-06-22T03:13:11.150Z,20.90
2023-06-22T03:15:14.354Z,20.90
2023-06-22T03:17:16.560Z,20.90
2023-06-22T03:19:19.087Z,21.00
2023-06-22T03:21:23.445Z,21.00
2023-06-22T03:23:25.923Z,21.10
2023-06-22T03:25:28.026Z,21.10
2023-06-22T03:27:30.547Z,21.30
2023-06-22T03:29:32.758Z,21.30
2023-06-22T03:31:35.285Z,21.30
2023-06-22T03:33:37.894Z,21.40
2023-06-22T03:35:40.286Z,21.30
2023-06-22T03:37:42.580Z,21.40
2023-06-22T03:39:44.971Z,21.50
2023-06-22T03:41:47.127Z,21.60
2023-06-22T03:43:49.643Z,21.60
2023-06-22T03:45:51.830Z,21.60
2023-06-22T03:47:54.696Z,21.70
2023-06-22T03:49:56.890Z,21.60
2023-06-22T03:51:59.297Z,21.70
2023-06-22T03:54:01.495Z,21.70
2023-06-22T03:56:04.031Z,21.80
2023-06-22T03:58:06.962Z,21.70
2023-06-22T04:00:11.389Z,21.80
2023-06-22T04:02:13.754Z,21.80
2023-06-22T04:04:16.266Z,21.90
2023-06-22T04:06:18.542Z,22.00
2023-06-22T04:08:22.067Z,22.00
2023-06-22T04:10:24.196Z,21.90
2023-06-22T04:12:26.751Z,22.00
2023-06-22T04:14:28.973Z,22.00
2023-06-22T04:16:31.487Z,22.00
2023-06-22T04:18:33.652Z,22.10
2023-06-22T04:20:36.471Z,22.10
2023-06-22T04:22:38.796Z,22.20
2023-06-22T04:24:41.216Z,22.20
2023-06-22T04:26:43.453Z,22.30
2023-06-22T04:28:52.602Z,22.40
2023-06-22T04:30:59.461Z,22.50
2023-06-22T04:33:02.207Z,22.50
2023-06-22T04:35:08.001Z,22.50
2023-06-22T04:37:10.737Z,22.60
2023-06-22T04:39:12.992Z,22.60
2023-06-22T04:41:25.386Z,22.80
2023-06-22T04:43:31.717Z,22.80
2023-06-22T04:45:34.585Z,22.90
2023-06-22T04:47:40.593Z,23.00
2023-06-22T04:49:44.607Z,23.00
2023-06-22T04:51:46.839Z,23.10
2023-06-22T04:53:49.294Z,23.10
2023-06-22T04:55:54.340Z,23.20
2023-06-22T04:57:56.806Z,23.30
2023-06-22T05:00:15.601Z,23.30
2023-06-22T05:02:18.049Z,23.40
2023-06-22T05:04:20.655Z,23.40
2023-06-22T05:06:25.939Z,23.50
2023-06-22T05:08:29.906Z,23.50
2023-06-22T05:10:32.695Z,23.60
2023-06-22T05:12:35.335Z,23.60
2023-06-22T05:14:37.808Z,23.70
2023-06-22T05:16:40.671Z,23.60
2023-06-22T05:18:44.707Z,23.60
2023-06-22T05:20:47.102Z,23.60
2023-06-22T05:22:49.592Z,23.60
2023-06-22T05:24:51.739Z,23.60
2023-06-22T05:26:54.175Z,23.50
2023-06-22T05:28:56.775Z,23.50
2023-06-22T05:30:59.474Z,23.50
2023-06-22T05:33:01.693Z,23.50
2023-06-22T05:35:05.238Z,23.40
2023-06-22T05:37:07.476Z,23.40
2023-06-22T05:39:17.283Z,23.40
2023-06-22T05:41:19.888Z,23.40
2023-06-22T05:43:22.350Z,23.40
2023-06-22T05:45:24.438Z,23.30
2023-06-22T05:47:26.906Z,23.40
2023-06-22T05:49:33.816Z,23.40
2023-06-22T05:51:36.373Z,23.40
2023-06-22T05:53:38.504Z,23.50
2023-06-22T05:55:41.605Z,23.60
2023-06-22T05:57:43.816Z,23.70
2023-06-22T05:59:46.330Z,23.90
2023-06-22T06:01:51.543Z,24.00
2023-06-22T06:03:54.184Z,24.30
2023-06-22T06:05:56.590Z,24.50
2023-06-22T06:07:59.651Z,24.80
2023-06-22T06:10:02.082Z,24.90
2023-06-22T06:12:05.020Z,25.00
2023-06-22T06:14:07.593Z,25.00
2023-06-22T06:16:10.038Z,25.00
2023-06-22T06:18:12.333Z,25.10
2023-06-22T06:20:15.118Z,25.10
2023-06-22T06:22:17.405Z,25.00
2023-06-22T06:24:19.948Z,25.10
2023-06-22T06:26:30.546Z,25.20
2023-06-22T06:28:33.078Z,25.30
2023-06-22T06:30:36.063Z,25.30
2023-06-22T06:32:39.416Z,25.40
2023-06-22T06:34:41.954Z,25.40
2023-06-22T06:36:45.577Z,25.40
2023-06-22T06:38:48.547Z,25.50
2023-06-22T06:40:50.982Z,25.70
2023-06-22T06:42:53.234Z,25.70
2023-06-22T06:44:56.433Z,25.80
2023-06-22T06:46:58.691Z,25.90
2023-06-22T06:49:01.163Z,26.10
2023-06-22T06:51:03.711Z,26.50
2023-06-22T06:53:06.977Z,27.20
2023-06-22T06:55:13.096Z,27.80
2023-06-22T06:57:16.765Z,28.30
2023-06-22T06:59:18.955Z,28.90
2023-06-22T07:01:22.721Z,29.20
2023-06-22T07:03:25.221Z,29.60
2023-06-22T07:05:27.648Z,30.10
2023-06-22T07:07:29.829Z,30.50
2023-06-22T07:09:32.242Z,30.80
2023-06-22T07:11:34.613Z,31.20
2023-06-22T07:13:37.127Z,31.50
2023-06-22T07:15:39.374Z,31.70
2023-06-22T07:17:42.635Z,31.60
2023-06-22T07:19:44.945Z,31.80
2023-06-22T07:21:47.409Z,32.10
2023-06-22T07:23:49.642Z,32.20
2023-06-22T07:25:52.208Z,32.10
2023-06-22T07:28:07.448Z,31.80
2023-06-22T07:30:10.956Z,31.60
2023-06-22T07:32:13.220Z,31.50
2023-06-22T07:34:15.597Z,31.60
2023-06-22T07:36:18.801Z,31.70
2023-06-22T07:38:21.269Z,31.80
2023-06-22T07:40:23.638Z,31.80
2023-06-22T07:42:29.970Z,32.10
2023-06-22T07:44:32.527Z,32.10
2023-06-22T07:46:34.930Z,32.00
2023-06-22T07:48:38.878Z,32.00
2023-06-22T07:50:41.070Z,31.60
2023-06-22T07:52:43.519Z,32.00
2023-06-22T07:54:45.667Z,31.40
2023-06-22T07:56:48.221Z,31.20
2023-06-22T07:58:50.418Z,31.50
2023-06-22T08:00:52.836Z,31.70
2023-06-22T08:02:55.168Z,32.20
2023-06-22T08:05:10.490Z,32.50
2023-06-22T08:07:21.236Z,32.80
2023-06-22T08:09:23.853Z,33.20
2023-06-22T08:11:26.684Z,33.50
2023-06-22T08:13:29.243Z,33.80
2023-06-22T08:15:31.700Z,33.80
2023-06-22T08:17:34.785Z,33.80
2023-06-22T08:19:38.534Z,33.90
2023-06-22T08:21:40.961Z,34.00
2023-06-22T08:23:43.094Z,34.00
2023-06-22T08:25:45.683Z,33.80
2023-06-22T08:27:49.512Z,34.00
2023-06-22T08:29:52.870Z,34.00
2023-06-22T08:31:55.002Z,34.10
2023-06-22T08:33:57.667Z,34.20
2023-06-22T08:36:01.223Z,34.40
2023-06-22T08:38:03.791Z,34.60
2023-06-22T08:40:10.622Z,34.00
2023-06-22T08:42:13.164Z,34.10
2023-06-22T08:44:16.516Z,33.80
2023-06-22T08:46:23.501Z,33.80
2023-06-22T08:48:25.706Z,33.80
2023-06-22T08:50:28.470Z,34.00
2023-06-22T08:52:30.962Z,34.00
2023-06-22T08:54:37.888Z,34.20
2023-06-22T08:56:40.100Z,34.30
2023-06-22T08:58:42.510Z,34.00
2023-06-22T09:00:44.687Z,33.60
2023-06-22T09:02:48.534Z,33.80
2023-06-22T09:04:57.115Z,33.60
2023-06-22T09:06:59.660Z,33.50
2023-06-22T09:09:01.949Z,32.90
2023-06-22T09:11:04.511Z,32.90
2023-06-22T09:13:06.728Z,32.80
2023-06-22T09:15:13.248Z,32.60
2023-06-22T09:17:17.927Z,32.40
2023-06-22T09:19:20.471Z,32.30
2023-06-22T09:21:23.152Z,32.10
2023-06-22T09:23:25.613Z,32.10
2023-06-22T09:25:28.096Z,32.00
2023-06-22T09:27:30.909Z,32.20
2023-06-22T09:29:35.735Z,32.30
2023-06-22T09:31:38.332Z,32.30
2023-06-22T09:33:41.968Z,32.20
2023-06-22T09:35:44.498Z,32.00
2023-06-22T09:37:47.050Z,32.20
2023-06-22T09:39:49.540Z,32.50
2023-06-22T09:41:52.631Z,32.60
2023-06-22T09:43:56.964Z,32.90
2023-06-22T09:45:59.618Z,33.00
2023-06-22T09:48:02.110Z,33.10
2023-06-22T09:50:04.744Z,33.10
2023-06-22T09:52:07.740Z,33.30
2023-06-22T09:54:09.954Z,33.20
2023-06-22T09:56:16.072Z,33.00
2023-06-22T09:58:18.657Z,32.80
2023-06-22T10:00:21.271Z,33.10
2023-06-22T10:02:23.938Z,33.10
2023-06-22T10:04:27.134Z,33.10
2023-06-22T10:06:29.592Z,32.80
2023-06-22T10:08:32.149Z,32.80
2023-06-22T10:10:34.474Z,32.80
2023-06-22T10:12:36.884Z,33.00
2023-06-22T10:14:39.122Z,32.90
2023-06-22T10:16:42.261Z,33.00
2023-06-22T10:18:45.040Z,32.80
2023-06-22T10:20:51.683Z,32.50
2023-06-22T10:22:53.881Z,32.40
2023-06-22T10:24:56.343Z,32.20
2023-06-22T10:26:58.517Z,31.90
2023-06-22T10:31:09.711Z,31.90
2023-06-22T10:33:12.942Z,31.90
2023-06-22T10:35:17.312Z,32.00
2023-06-22T10:37:19.972Z,32.10
2023-06-22T10:39:22.101Z,32.30
2023-06-22T10:41:24.575Z,32.30
2023-06-22T10:43:26.733Z,32.30
2023-06-22T10:45:29.716Z,32.30
2023-06-22T10:47:32.436Z,32.30
2023-06-22T10:49:35.075Z,32.30
2023-06-22T10:51:37.251Z,32.50
2023-06-22T10:53:39.780Z,32.50
2023-06-22T10:57:49.783Z,32.40
2023-06-22T10:59:52.126Z,32.20
2023-06-22T11:01:54.920Z,32.10
2023-06-22T11:03:57.153Z,32.20
2023-06-22T11:05:59.643Z,32.30
2023-06-22T11:08:01.822Z,32.20
2023-06-22T11:10:04.914Z,32.30
2023-06-22T11:12:07.777Z,32.20
2023-06-22T11:14:10.222Z,32.10
2023-06-22T11:16:12.451Z,32.10
2023-06-22T11:18:14.993Z,32.30
2023-06-22T11:20:17.419Z,32.30
2023-06-22T11:22:19.896Z,32.30
2023-06-22T11:24:22.255Z,32.30
2023-06-22T11:26:24.687Z,32.30
2023-06-22T11:28:26.836Z,32.30
2023-06-22T11:30:29.724Z,32.30
2023-06-22T11:32:32.274Z,32.20
2023-06-22T11:34:35.310Z,32.10
2023-06-22T11:36:37.526Z,32.00
2023-06-22T11:38:40.456Z,32.00
2023-06-22T11:40:42.683Z,31.90
2023-06-22T11:42:45.490Z,31.70
2023-06-22T11:44:47.654Z,31.80
2023-06-22T11:46:50.143Z,31.90
2023-06-22T11:48:52.305Z,31.90
2023-06-22T11:50:57.288Z,31.80
2023-06-22T11:53:00.577Z,31.70
2023-06-22T11:55:04.992Z,31.90
2023-06-22T11:57:07.129Z,31.90
2023-06-22T11:59:09.576Z,31.70
2023-06-22T12:01:11.741Z,31.80
2023-06-22T12:03:15.979Z,31.70
2023-06-22T12:05:21.725Z,31.80
2023-06-22T12:07:24.213Z,31.80
2023-06-22T12:09:26.401Z,31.80
2023-06-22T12:11:28.833Z,31.70
2023-06-22T12:13:31.035Z,31.60
2023-06-22T12:15:33.498Z,31.50
2023-06-22T12:17:35.961Z,31.50
2023-06-22T12:19:38.510Z,31.40
2023-06-22T12:21:41.969Z,31.50
2023-06-22T12:23:44.448Z,31.60
2023-06-22T12:25:47.112Z,31.50
2023-06-22T12:27:50.251Z,31.70
2023-06-22T12:29:52.697Z,31.60
2023-06-22T12:31:55.220Z,31.70
2023-06-22T12:33:57.365Z,31.60
2023-06-22T12:35:59.860Z,31.70
2023-06-22T12:38:02.155Z,31.80
2023-06-22T12:40:05.325Z,31.80
2023-06-22T12:42:09.924Z,31.70
2023-06-22T12:44:12.640Z,31.60
2023-06-22T12:46:14.862Z,31.60
2023-06-22T12:48:18.121Z,31.70
2023-06-22T12:50:20.284Z,31.70
2023-06-22T12:52:22.734Z,31.60
2023-06-22T12:54:24.907Z,31.60
2023-06-22T12:56:27.397Z,31.50
2023-06-22T12:58:29.608Z,31.60
2023-06-22T13:00:32.467Z,31.50
2023-06-22T13:02:34.898Z,31.40
2023-06-22T13:04:37.547Z,31.50
2023-06-22T13:06:39.743Z,31.50
2023-06-22T13:09:14.375Z,31.40
2023-06-22T13:11:04.506Z,31.40
2023-06-22T13:13:06.915Z,31.30
2023-06-22T13:15:09.354Z,31.30
2023-06-22T13:17:12.086Z,31.20
2023-06-22T13:19:14.242Z,31.10
2023-06-22T13:21:16.650Z,31.20
2023-06-22T13:23:18.819Z,31.20
2023-06-22T13:25:24.209Z,31.00
2023-06-22T13:27:26.628Z,31.10
2023-06-22T13:29:29.078Z,31.10
2023-06-22T13:31:31.343Z,31.00
2023-06-22T13:33:33.880Z,31.10
2023-06-22T13:35:39.056Z,31.00
2023-06-22T13:37:41.513Z,31.00
2023-06-22T13:39:43.663Z,30.90
2023-06-22T13:41:46.217Z,30.90
2023-06-22T13:43:48.445Z,31.00
2023-06-22T13:45:51.095Z,31.10
2023-06-22T13:47:53.598Z,31.10
2023-06-22T13:49:56.154Z,31.20
2023-06-22T13:51:58.253Z,31.10
2023-06-22T13:54:00.610Z,31.00
2023-06-22T13:56:02.740Z,31.00
2023-06-22T13:58:05.142Z,31.00
2023-06-22T14:00:09.486Z,31.00
2023-06-22T14:02:11.949Z,30.90
2023-06-22T14:04:14.183Z,30.80
2023-06-22T14:06:16.645Z,30.80
2023-06-22T14:08:39.668Z,30.80
2023-06-22T14:10:41.214Z,30.80
2023-06-22T14:12:43.390Z,30.80
2023-06-22T14:14:46.138Z,30.70
2023-06-22T14:16:50.500Z,30.50
2023-06-22T14:18:54.488Z,30.70
2023-06-22T14:20:58.118Z,30.80
2023-06-22T14:23:00.584Z,30.80
2023-06-22T14:25:03.066Z,30.80
2023-06-22T14:27:08.885Z,30.60
2023-06-22T14:29:11.019Z,30.60
2023-06-22T14:31:13.602Z,30.60
2023-06-22T14:33:15.855Z,30.60
2023-06-22T14:35:18.297Z,30.60
2023-06-22T14:37:20.539Z,30.50
2023-06-22T14:39:22.993Z,30.50
2023-06-22T14:41:25.260Z,30.50
2023-06-22T14:43:27.854Z,30.40
2023-06-22T14:45:30.071Z,30.40
2023-06-22T14:47:32.747Z,30.30
2023-06-22T14:49:35.535Z,30.30
2023-06-22T14:51:37.975Z,30.20
2023-06-22T14:53:40.147Z,30.10
2023-06-22T14:55:42.770Z,30.10
2023-06-22T14:57:45.092Z,30.10
2023-06-22T14:59:49.747Z,30.10
2023-06-22T15:01:52.157Z,30.00
2023-06-22T15:03:54.775Z,30.00
2023-06-22T15:05:57.717Z,30.00
2023-06-22T15:08:00.162Z,29.90
2023-06-22T15:10:02.427Z,29.90
2023-06-22T15:12:07.025Z,29.90
2023-06-22T15:14:10.017Z,29.90
2023-06-22T15:16:14.686Z,29.90
2023-06-22T15:18:17.609Z,29.90
2023-06-22T15:20:20.041Z,29.90
2023-06-22T15:22:22.321Z,29.90
2023-06-22T15:24:24.793Z,29.90
2023-06-22T15:26:26.929Z,29.80
2023-06-22T15:28:30.508Z,29.70
2023-06-22T15:30:32.905Z,30.00
2023-06-22T15:32:35.406Z,29.70
2023-06-22T15:34:37.607Z,29.60
2023-06-22T15:36:40.038Z,29.50
2023-06-22T15:38:42.186Z,29.50
2023-06-22T15:40:44.794Z,29.50
2023-06-22T15:42:49.695Z,29.40
2023-06-22T15:44:54.774Z,29.30
2023-06-22T15:46:56.954Z,29.30
2023-06-22T15:48:59.412Z,29.30
2023-06-22T15:51:02.754Z,29.20
2023-06-22T15:53:05.179Z,29.20
2023-06-22T15:55:09.003Z,29.20
2023-06-22T15:57:14.003Z,29.10
2023-06-22T15:59:16.224Z,29.10
2023-06-22T16:01:18.970Z,29.00
2023-06-22T16:03:21.355Z,28.90
2023-06-22T16:05:23.984Z,28.90
2023-06-22T16:07:26.365Z,28.90
2023-06-22T16:09:29.652Z,28.90
2023-06-22T16:11:31.892Z,28.90
2023-06-22T16:13:34.670Z,28.80
2023-06-22T16:15:36.882Z,28.80
2023-06-22T16:17:39.576Z,28.80
2023-06-22T16:19:41.875Z,28.70
2023-06-22T16:21:44.279Z,28.70
2023-06-22T16:23:46.507Z,28.70
2023-06-22T16:25:49.090Z,28.70
2023-06-22T16:27:51.270Z,28.60
2023-06-22T16:29:53.669Z,28.60
2023-06-22T16:31:55.912Z,28.60
2023-06-22T16:33:58.330Z,28.60
2023-06-22T16:36:01.392Z,28.50
2023-06-22T16:38:04.117Z,28.50
2023-06-22T16:40:06.996Z,28.50
2023-06-22T16:42:10.270Z,28.50
2023-06-22T16:44:12.461Z,28.50
2023-06-22T16:46:14.958Z,28.50
2023-06-22T16:48:17.100Z,28.50
2023-06-22T16:50:20.143Z,28.40
2023-06-22T16:52:23.454Z,28.40
2023-06-22T16:54:26.391Z,28.30
2023-06-22T16:56:29.521Z,28.30
2023-06-22T16:58:32.496Z,28.30
2023-06-22T17:00:35.863Z,28.20
2023-06-22T17:03:06.335Z,28.20
2023-06-22T17:05:09.228Z,28.00
2023-06-22T17:07:14.999Z,28.00
2023-06-22T17:09:17.332Z,28.00
2023-06-22T17:11:20.216Z,27.90
2023-06-22T17:13:22.370Z,27.80
2023-06-22T17:15:26.361Z,27.80
2023-06-22T17:17:31.480Z,27.70
2023-06-22T17:19:34.012Z,27.70
2023-06-22T17:21:36.483Z,27.70
2023-06-22T17:23:39.229Z,27.70
2023-06-22T17:25:43.869Z,27.60
2023-06-22T17:27:53.613Z,27.60
2023-06-22T17:30:18.934Z,27.60
2023-06-22T17:32:22.463Z,27.50
2023-06-22T17:34:29.560Z,27.50
2023-06-22T17:36:32.098Z,27.40
2023-06-22T17:38:37.530Z,27.40
2023-06-22T17:40:41.481Z,27.40
2023-06-22T17:42:44.289Z,27.30
2023-06-22T17:44:46.926Z,27.30
2023-06-22T17:47:01.878Z,27.20
2023-06-22T17:49:12.307Z,27.20
2023-06-22T17:51:16.309Z,27.20
2023-06-22T17:53:19.319Z,27.10
2023-06-22T17:55:23.125Z,27.00
2023-06-22T17:57:25.360Z,26.90
2023-06-22T17:59:30.383Z,26.90
2023-06-22T18:01:39.167Z,26.90
2023-06-22T18:03:41.572Z,26.80
2023-06-22T18:05:48.574Z,26.70
2023-06-22T18:07:53.305Z,26.70
2023-06-22T18:09:57.459Z,26.60
2023-06-22T18:12:03.279Z,26.50
2023-06-22T18:14:06.516Z,26.50
2023-06-22T18:16:08.829Z,26.40
2023-06-22T18:18:12.611Z,26.30
2023-06-22T18:20:15.346Z,26.30
2023-06-22T18:22:19.106Z,26.20
2023-06-22T18:24:21.509Z,26.10
2023-06-22T18:26:29.437Z,26.00
2023-06-22T18:28:32.299Z,25.90
2023-06-22T18:30:35.350Z,25.90
2023-06-22T18:32:40.250Z,25.80
2023-06-22T18:34:44.302Z,25.70
2023-06-22T18:36:56.960Z,25.60
2023-06-22T18:39:04.242Z,25.50
2023-06-22T18:41:06.701Z,25.40
2023-06-22T18:43:09.173Z,25.30
2023-06-22T18:45:28.984Z,25.20
2023-06-22T18:47:32.557Z,25.10
2023-06-22T18:49:49.445Z,25.00
2023-06-22T18:52:02.568Z,25.00
2023-06-22T18:54:05.850Z,24.90
2023-06-22T18:56:15.998Z,24.80
2023-06-22T18:58:24.390Z,24.80
2023-06-22T19:00:31.914Z,24.70
2023-06-22T19:02:52.708Z,24.60
2023-06-22T19:05:15.756Z,24.60
2023-06-22T19:07:17.914Z,24.50
2023-06-22T19:09:20.651Z,24.40
2023-06-22T19:11:28.707Z,24.40
2023-06-22T19:13:31.730Z,24.30
2023-06-22T19:15:34.863Z,24.30
2023-06-22T19:17:37.754Z,24.30
2023-06-22T19:19:41.529Z,24.20
2023-06-22T19:21:44.080Z,24.20
2023-06-22T19:23:46.248Z,24.10
2023-06-22T19:25:49.497Z,24.10
2023-06-22T19:27:53.695Z,24.00
2023-06-22T19:29:57.100Z,23.90
2023-06-22T19:31:59.495Z,23.90
2023-06-22T19:34:06.062Z,23.90
2023-06-22T19:36:08.571Z,23.80
2023-06-22T19:38:10.973Z,23.80
2023-06-22T19:40:14.690Z,23.70
2023-06-22T19:42:17.560Z,23.70
2023-06-22T19:44:19.709Z,23.60
2023-06-22T19:46:30.194Z,23.60
2023-06-22T19:48:32.824Z,23.60
2023-06-22T19:50:35.830Z,23.60
2023-06-22T19:52:41.073Z,23.50
2023-06-22T19:54:44.080Z,23.40
2023-06-22T19:56:46.292Z,23.40
2023-06-22T19:58:48.832Z,23.40
2023-06-22T20:00:57.512Z,23.40
2023-06-22T20:03:00.153Z,23.30
2023-06-22T20:05:10.070Z,23.30
2023-06-22T20:07:14.399Z,23.30
2023-06-22T20:09:16.996Z,23.20
2023-06-22T20:11:30.255Z,23.20
2023-06-22T20:13:32.826Z,23.20
2023-06-22T20:15:44.074Z,23.20
2023-06-22T20:17:49.041Z,23.20
2023-06-22T20:19:54.632Z,23.20
2023-06-22T20:21:56.947Z,22.90
2023-06-22T20:24:07.362Z,23.20
2023-06-22T20:26:12.581Z,23.10
2023-06-22T20:28:17.224Z,23.10
2023-06-22T20:30:21.774Z,23.00
2023-06-22T20:32:24.235Z,23.00
2023-06-22T20:34:26.344Z,23.00
2023-06-22T20:36:28.834Z,23.00
2023-06-22T20:38:33.769Z,22.90
2023-06-22T20:40:36.302Z,22.90
2023-06-22T20:42:38.745Z,22.90
2023-06-22T20:44:41.243Z,22.90
2023-06-22T20:46:46.913Z,22.90
2023-06-22T20:48:50.979Z,22.90
2023-06-22T20:50:58.614Z,22.80
2023-06-22T20:53:03.155Z,22.90
2023-06-22T20:55:05.558Z,22.80
2023-06-22T20:57:08.084Z,22.80
2023-06-22T20:59:10.284Z,22.80
2023-06-22T21:01:19.184Z,22.80
2023-06-22T21:03:21.907Z,22.80
2023-06-22T21:05:24.518Z,22.80
2023-06-22T21:07:26.675Z,22.80
2023-06-22T21:09:35.066Z,22.80
2023-06-22T21:11:44.635Z,22.80
2023-06-22T21:13:47.194Z,22.80
2023-06-22T21:15:49.377Z,22.70
2023-06-22T21:17:51.926Z,22.70
2023-06-22T21:19:54.194Z,22.70
2023-06-22T21:21:56.710Z,22.70
2023-06-22T21:23:58.906Z,22.70
2023-06-22T21:26:01.423Z,22.70
2023-06-22T21:28:04.077Z,22.70
2023-06-22T21:30:08.955Z,22.70
2023-06-22T21:32:11.276Z,22.70
2023-06-22T21:34:13.740Z,22.70
2023-06-22T21:36:15.920Z,22.60
2023-06-22T21:38:18.482Z,22.70
2023-06-22T21:40:20.704Z,22.60
2023-06-22T21:42:27.847Z,22.60
2023-06-22T21:44:30.091Z,22.60
2023-06-22T21:46:32.821Z,22.60
2023-06-22T21:48:35.060Z,22.50
2023-06-22T21:50:37.549Z,22.50
2023-06-22T21:52:39.833Z,22.50
2023-06-22T21:54:42.193Z,22.40
2023-06-22T21:56:44.388Z,22.40
2023-06-22T21:58:47.011Z,22.30
2023-06-22T22:00:49.371Z,22.30
2023-06-22T22:02:51.869Z,22.20
2023-06-22T22:04:54.253Z,22.20
2023-06-22T22:06:57.762Z,22.20
2023-06-22T22:08:59.859Z,22.10
2023-06-22T22:11:03.867Z,22.10
2023-06-22T22:13:05.999Z,22.00
2023-06-22T22:15:09.359Z,21.90
2023-06-22T22:17:12.030Z,22.00
2023-06-22T22:19:16.365Z,21.90
2023-06-22T22:21:19.781Z,21.80
2023-06-22T22:23:27.316Z,21.80
2023-06-22T22:25:30.623Z,21.70
2023-06-22T22:27:33.234Z,21.70
2023-06-22T22:29:35.359Z,21.60
2023-06-22T22:31:40.723Z,21.50
2023-06-22T22:33:43.286Z,21.50
2023-06-22T22:35:46.112Z,21.50
2023-06-22T22:37:48.222Z,21.50
2023-06-22T22:39:50.746Z,21.40
2023-06-22T22:41:52.841Z,21.40
2023-06-22T22:43:59.406Z,21.40
2023-06-22T22:46:01.879Z,21.40
2023-06-22T22:48:04.644Z,21.30
2023-06-22T22:50:08.453Z,21.30
2023-06-22T22:52:10.891Z,21.30
2023-06-22T22:54:13.080Z,21.30
2023-06-22T22:56:15.886Z,21.20
2023-06-22T22:58:18.134Z,21.20
2023-06-22T23:00:20.617Z,21.10
2023-06-22T23:02:25.627Z,21.10
2023-06-22T23:04:28.192Z,21.00
2023-06-22T23:06:30.401Z,21.00
2023-06-22T23:08:32.906Z,21.00
2023-06-22T23:10:35.290Z,20.90
2023-06-22T23:12:38.387Z,21.00
2023-06-22T23:14:42.168Z,21.00
2023-06-22T23:16:44.998Z,20.90
2023-06-22T23:18:47.214Z,20.90
2023-06-22T23:20:51.486Z,21.00
2023-06-22T23:22:58.630Z,20.90
2023-06-22T23:25:01.089Z,20.90
2023-06-22T23:27:03.322Z,20.80
2023-06-22T23:29:06.116Z,20.80
2023-06-22T23:31:10.151Z,20.80
2023-06-22T23:33:12.672Z,20.70
2023-06-22T23:35:14.919Z,20.70
2023-06-22T23:37:17.306Z,20.70
2023-06-22T23:39:19.389Z,20.60
2023-06-22T23:41:22.575Z,20.60
2023-06-22T23:43:26.225Z,20.60
2023-06-22T23:45:28.684Z,20.60
2023-06-22T23:47:31.207Z,20.60
2023-06-22T23:49:33.767Z,20.60
2023-06-22T23:51:38.044Z,20.60
2023-06-22T23:53:41.964Z,20.50
2023-06-22T23:55:44.190Z,20.60
2023-06-22T23:57:47.161Z,20.60
2023-06-22T23:59:51.884Z,20.50
